createdAt,value
2023-04-18T00:00:26.197Z,7.09
2023-04-18T00:03:29.996Z,6.86
2023-04-18T00:06:32.442Z,6.98
2023-04-18T00:09:34.078Z,7.06
2023-04-18T00:12:36.360Z,7.06
2023-04-18T00:15:38.023Z,7.04
2023-04-18T00:18:40.177Z,7.17
2023-04-18T00:21:46.941Z,7.23
2023-04-18T00:24:49.933Z,7.23
2023-04-18T00:28:05.264Z,7.13
2023-04-18T00:31:15.270Z,7.01
2023-04-18T00:34:16.931Z,6.87
2023-04-18T00:37:20.225Z,6.95
2023-04-18T00:40:26.950Z,6.72
2023-04-18T00:43:29.094Z,6.91
2023-04-18T00:46:33.881Z,6.80
2023-04-18T00:49:35.628Z,6.83
2023-04-18T00:52:40.780Z,6.86
2023-04-18T00:55:43.105Z,6.82
2023-04-18T00:58:46.913Z,6.89
2023-04-18T01:01:48.707Z,6.93
2023-04-18T01:04:50.496Z,7.05
2023-04-18T01:11:16.534Z,7.04
2023-04-18T01:14:20.503Z,7.19
2023-04-18T01:17:28.422Z,6.99
2023-04-18T01:20:31.170Z,6.87
2023-04-18T01:23:34.165Z,7.04
2023-04-18T01:26:39.401Z,7.02
2023-04-18T01:29:50.290Z,6.76
2023-04-18T01:32:52.049Z,6.60
2023-04-18T01:35:53.647Z,6.46
2023-04-18T01:38:56.440Z,6.25
2023-04-18T01:42:02.234Z,6.36
2023-04-18T01:45:08.288Z,6.39
2023-04-18T01:48:16.088Z,6.19
2023-04-18T01:51:17.700Z,6.24
2023-04-18T01:54:19.409Z,6.13
2023-04-18T01:57:21.078Z,6.15
2023-04-18T02:00:27.225Z,6.12
2023-04-18T02:03:28.952Z,5.97
2023-04-18T02:06:39.784Z,5.96
2023-04-18T02:09:41.386Z,6.00
2023-04-18T02:12:45.960Z,5.87
2023-04-18T02:15:47.612Z,5.71
2023-04-18T02:18:52.758Z,5.80
2023-04-18T02:21:54.526Z,5.65
2023-04-18T02:24:56.200Z,5.58
2023-04-18T02:27:59.337Z,5.69
2023-04-18T02:31:06.016Z,5.65
2023-04-18T02:34:09.161Z,5.59
2023-04-18T02:37:11.384Z,5.50
2023-04-18T02:40:15.273Z,5.41
2023-04-18T02:43:21.949Z,5.41
2023-04-18T02:46:23.584Z,5.41
2023-04-18T02:49:25.627Z,5.31
2023-04-18T02:52:29.284Z,5.25
2023-04-18T02:55:37.374Z,5.24
2023-04-18T02:58:41.330Z,5.27
2023-04-18T03:02:01.234Z,5.03
2023-04-18T03:05:05.598Z,5.21
2023-04-18T03:08:08.390Z,5.17
2023-04-18T03:11:13.229Z,5.25
2023-04-18T03:21:01.462Z,4.77
2023-04-18T03:24:08.134Z,5.04
2023-04-18T03:27:11.510Z,4.91
2023-04-18T03:30:16.001Z,4.94
2023-04-18T03:33:31.384Z,4.91
2023-04-18T03:36:46.553Z,4.93
2023-04-18T03:39:52.460Z,4.99
2023-04-18T03:42:57.728Z,4.83
2023-04-18T03:46:01.744Z,4.99
2023-04-18T03:49:11.807Z,5.09
2023-04-18T03:52:21.406Z,5.06
2023-04-18T03:55:22.974Z,5.10
2023-04-18T03:58:25.352Z,5.00
2023-04-18T04:01:38.981Z,5.04
2023-04-18T04:07:57.107Z,5.31
2023-04-18T04:10:59.580Z,5.34
2023-04-18T04:14:10.984Z,5.26
2023-04-18T04:17:17.706Z,5.31
2023-04-18T04:20:24.152Z,5.25
2023-04-18T04:23:35.368Z,5.21
2023-04-18T04:30:04.236Z,5.36
2023-04-18T04:33:09.806Z,5.38
2023-04-18T04:36:18.612Z,5.47
2023-04-18T04:39:22.132Z,5.45
2023-04-18T04:42:47.257Z,5.52
2023-04-18T04:45:57.624Z,5.44
2023-04-18T04:49:05.304Z,5.37
2023-04-18T04:52:07.400Z,5.38
2023-04-18T04:55:12.283Z,5.51
2023-04-18T04:58:15.970Z,5.39
2023-04-18T05:01:39.357Z,5.58
2023-04-18T05:04:42.653Z,5.47
2023-04-18T05:07:53.201Z,5.58
2023-04-18T05:10:55.718Z,5.63
2023-04-18T05:13:59.385Z,5.65
2023-04-18T05:17:01.100Z,5.61
2023-04-18T05:20:11.997Z,5.79
2023-04-18T05:23:16.270Z,5.74
2023-04-18T05:26:18.747Z,5.77
2023-04-18T05:29:20.404Z,5.95
2023-04-18T05:32:22.106Z,5.90
2023-04-18T05:35:24.361Z,5.92
2023-04-18T05:38:32.102Z,5.98
2023-04-18T05:41:40.812Z,6.05
2023-04-18T05:44:42.520Z,6.10
2023-04-18T05:47:44.261Z,6.10
2023-04-18T05:50:52.012Z,6.19
2023-04-18T05:53:53.555Z,6.26
2023-04-18T05:56:55.227Z,6.22
2023-04-18T06:00:04.132Z,6.31
2023-04-18T06:03:17.386Z,6.41
2023-04-18T06:06:19.147Z,6.36
2023-04-18T06:09:20.759Z,6.48
2023-04-18T06:12:24.692Z,6.50
2023-04-18T06:15:35.694Z,6.59
2023-04-18T06:18:37.551Z,6.64
2023-04-18T06:21:47.467Z,6.69
2023-04-18T06:24:50.998Z,6.71
2023-04-18T06:27:57.640Z,6.79
2023-04-18T06:30:59.105Z,6.77
2023-04-18T06:34:03.731Z,6.85
2023-04-18T06:37:05.859Z,6.81
2023-04-18T06:40:26.950Z,6.84
2023-04-18T06:43:29.543Z,6.94
2023-04-18T06:46:31.845Z,7.06
2023-04-18T06:49:33.416Z,7.04
2023-04-18T06:55:54.553Z,7.15
2023-04-18T06:59:07.156Z,7.23
2023-04-18T07:02:08.776Z,7.28
2023-04-18T07:05:10.799Z,7.31
2023-04-18T07:08:14.735Z,7.28
2023-04-18T07:11:18.525Z,7.34
2023-04-18T07:14:40.819Z,7.37
2023-04-18T07:17:48.663Z,7.42
2023-04-18T07:20:50.445Z,7.51
2023-04-18T07:23:52.074Z,7.58
2023-04-18T07:26:57.577Z,7.56
2023-04-18T07:30:03.128Z,7.51
2023-04-18T07:33:04.712Z,7.56
2023-04-18T07:36:09.073Z,7.52
2023-04-18T07:39:10.709Z,7.54
2023-04-18T07:45:30.251Z,7.67
2023-04-18T07:48:34.837Z,7.62
2023-04-18T07:51:36.418Z,7.63
2023-04-18T07:54:44.324Z,7.65
2023-04-18T07:57:50.564Z,7.50
2023-04-18T08:00:55.400Z,7.48
2023-04-18T08:04:01.471Z,7.64
2023-04-18T08:07:03.486Z,7.65
2023-04-18T08:10:12.624Z,7.72
2023-04-18T08:13:16.259Z,7.79
2023-04-18T08:16:17.956Z,7.74
2023-04-18T08:19:23.736Z,7.66
2023-04-18T08:22:28.645Z,7.65
2023-04-18T08:25:31.685Z,7.79
2023-04-18T08:28:34.657Z,7.79
2023-04-18T08:31:39.888Z,7.81
2023-04-18T08:34:44.315Z,7.81
2023-04-18T08:37:45.895Z,7.84
2023-04-18T08:40:47.977Z,7.76
2023-04-18T08:43:52.394Z,7.82
2023-04-18T08:46:55.905Z,7.80
2023-04-18T08:50:01.723Z,7.87
2023-04-18T08:53:03.353Z,7.92
2023-04-18T08:56:12.722Z,7.94
2023-04-18T08:59:17.161Z,7.94
2023-04-18T09:02:23.317Z,7.98
2023-04-18T09:05:26.906Z,7.92
2023-04-18T09:08:35.373Z,7.87
2023-04-18T09:11:42.531Z,8.04
2023-04-18T09:14:47.083Z,8.05
2023-04-18T09:17:54.311Z,8.41
2023-04-18T09:20:56.967Z,8.81
2023-04-18T09:24:15.468Z,9.13
2023-04-18T09:27:17.067Z,9.09
2023-04-18T09:30:32.936Z,9.47
2023-04-18T09:34:00.906Z,9.97
2023-04-18T09:37:44.174Z,10.01
2023-04-18T09:41:21.558Z,9.87
2023-04-18T09:44:25.571Z,9.75
2023-04-18T09:47:28.244Z,9.64
2023-04-18T09:50:32.913Z,9.68
2023-04-18T09:53:55.039Z,9.69
2023-04-18T09:57:01.050Z,9.75
2023-04-18T10:00:14.408Z,9.81
2023-04-18T10:03:19.505Z,9.98
2023-04-18T10:06:34.926Z,9.89
2023-04-18T10:09:37.645Z,10.28
2023-04-18T10:12:43.315Z,10.33
2023-04-18T10:15:54.570Z,10.19
2023-04-18T10:18:56.554Z,10.38
2023-04-18T10:22:01.537Z,10.34
2023-04-18T10:25:06.812Z,10.35
2023-04-18T10:28:10.925Z,10.52
2023-04-18T10:31:12.546Z,10.70
2023-04-18T10:34:18.140Z,10.99
2023-04-18T10:37:35.415Z,10.93
2023-04-18T10:40:38.765Z,11.01
2023-04-18T10:44:19.687Z,11.14
2023-04-18T10:47:22.349Z,11.38
2023-04-18T10:50:23.970Z,11.63
2023-04-18T10:53:27.957Z,11.38
2023-04-18T10:56:29.721Z,11.37
2023-04-18T10:59:33.069Z,11.52
2023-04-18T11:02:39.156Z,11.47
2023-04-18T11:09:13.419Z,11.52
2023-04-18T11:12:15.776Z,11.63
2023-04-18T11:15:23.259Z,11.39
2023-04-18T11:18:24.997Z,11.37
2023-04-18T11:21:32.389Z,11.55
2023-04-18T11:24:36.613Z,11.52
2023-04-18T11:27:47.885Z,11.29
2023-04-18T11:30:51.610Z,11.39
2023-04-18T11:33:56.600Z,11.35
2023-04-18T11:37:01.810Z,11.15
2023-04-18T11:40:10.439Z,11.29
2023-04-18T11:43:23.129Z,11.34
2023-04-18T11:46:37.861Z,11.57
2023-04-18T11:49:39.579Z,11.57
2023-04-18T11:52:42.613Z,11.68
2023-04-18T11:55:55.084Z,11.71
2023-04-18T12:02:17.547Z,12.16
2023-04-18T12:05:31.172Z,12.33
2023-04-18T12:08:33.000Z,12.56
2023-04-18T12:15:19.982Z,12.48
2023-04-18T12:18:27.677Z,12.64
2023-04-18T12:21:30.236Z,12.59
2023-04-18T12:24:41.717Z,12.72
2023-04-18T12:28:02.646Z,12.72
2023-04-18T12:31:07.697Z,12.85
2023-04-18T12:34:17.088Z,12.97
2023-04-18T12:37:18.917Z,13.28
2023-04-18T12:40:22.908Z,13.52
2023-04-18T12:43:29.307Z,13.36
2023-04-18T12:46:33.534Z,13.50
2023-04-18T12:49:41.344Z,13.44
2023-04-18T12:52:42.925Z,13.49
2023-04-18T12:55:51.000Z,13.66
2023-04-18T12:58:53.905Z,13.53
2023-04-18T13:02:07.704Z,13.44
2023-04-18T13:05:20.318Z,13.33
2023-04-18T13:08:23.206Z,13.49
2023-04-18T13:11:30.860Z,13.58
2023-04-18T13:14:34.504Z,13.75
2023-04-18T13:17:37.292Z,13.73
2023-04-18T13:20:42.077Z,14.08
2023-04-18T13:27:04.429Z,14.45
2023-04-18T13:30:07.466Z,14.53
2023-04-18T13:33:10.310Z,14.64
2023-04-18T13:36:19.384Z,14.82
2023-04-18T13:39:21.488Z,14.81
2023-04-18T13:42:23.037Z,14.95
2023-04-18T13:45:41.327Z,14.98
2023-04-18T13:48:42.845Z,15.00
2023-04-18T13:51:44.699Z,14.85
2023-04-18T13:58:01.724Z,15.62
2023-04-18T14:01:03.329Z,15.93
2023-04-18T14:04:05.123Z,15.91
2023-04-18T14:07:07.948Z,15.83
2023-04-18T14:10:18.643Z,15.88
2023-04-18T14:13:20.411Z,16.04
2023-04-18T14:16:33.387Z,15.85
2023-04-18T14:22:52.910Z,16.30
2023-04-18T14:25:55.175Z,15.96
2023-04-18T14:29:05.720Z,15.70
2023-04-18T14:32:33.736Z,15.86
2023-04-18T14:35:35.480Z,15.72
2023-04-18T14:38:37.236Z,15.77
2023-04-18T14:41:45.781Z,15.85
2023-04-18T14:44:47.317Z,15.96
2023-04-18T14:47:52.158Z,15.87
2023-04-18T14:51:00.304Z,15.66
2023-04-18T14:54:01.904Z,15.78
2023-04-18T14:57:03.642Z,15.84
2023-04-18T15:00:12.718Z,15.74
2023-04-18T15:03:19.333Z,15.68
2023-04-18T15:06:21.030Z,15.78
2023-04-18T15:09:22.696Z,15.78
2023-04-18T15:12:35.786Z,15.89
2023-04-18T15:15:41.663Z,15.89
2023-04-18T15:18:53.581Z,15.49
2023-04-18T15:22:02.537Z,15.38
2023-04-18T15:25:06.696Z,15.85
2023-04-18T15:28:08.466Z,16.66
2023-04-18T15:31:09.992Z,16.80
2023-04-18T15:34:13.601Z,16.76
2023-04-18T15:37:21.678Z,17.40
2023-04-18T15:40:29.801Z,17.17
2023-04-18T15:43:49.180Z,16.54
2023-04-18T15:46:50.962Z,16.37
2023-04-18T15:49:56.433Z,16.96
2023-04-18T15:52:58.016Z,16.43
2023-04-18T15:56:03.429Z,16.81
2023-04-18T15:59:13.384Z,16.62
2023-04-18T16:02:15.099Z,16.73
2023-04-18T16:05:17.418Z,16.45
2023-04-18T16:08:26.545Z,15.85
2023-04-18T16:11:34.439Z,15.61
2023-04-18T16:14:36.025Z,15.92
2023-04-18T16:17:43.610Z,16.29
2023-04-18T16:20:45.311Z,15.90
2023-04-18T16:24:01.842Z,16.07
2023-04-18T16:27:03.788Z,16.39
2023-04-18T16:30:05.849Z,15.99
2023-04-18T16:33:07.479Z,15.68
2023-04-18T16:36:11.885Z,15.53
2023-04-18T16:39:41.506Z,15.44
2023-04-18T16:42:43.124Z,15.68
2023-04-18T16:45:44.694Z,15.98
2023-04-18T16:48:46.283Z,16.05
2023-04-18T16:51:48.946Z,15.65
2023-04-18T16:54:53.227Z,15.35
2023-04-18T16:57:55.005Z,15.23
2023-04-18T17:00:56.820Z,15.43
2023-04-18T17:03:59.504Z,15.60
2023-04-18T17:07:01.258Z,15.43
2023-04-18T17:10:03.662Z,15.35
2023-04-18T17:13:08.212Z,15.33
2023-04-18T17:16:09.847Z,15.10
2023-04-18T17:19:11.490Z,14.95
2023-04-18T17:22:13.182Z,14.80
2023-04-18T17:25:21.538Z,14.67
2023-04-18T17:28:23.711Z,14.56
2023-04-18T17:31:25.357Z,14.49
2023-04-18T17:34:30.962Z,14.25
2023-04-18T17:37:32.622Z,14.05
2023-04-18T17:40:35.328Z,13.89
2023-04-18T17:43:46.605Z,13.79
2023-04-18T17:46:51.279Z,13.78
2023-04-18T17:49:56.024Z,13.67
2023-04-18T17:52:59.382Z,13.44
2023-04-18T17:56:07.057Z,13.23
2023-04-18T17:59:11.961Z,13.17
2023-04-18T18:02:20.061Z,13.10
2023-04-18T18:05:21.919Z,13.10
2023-04-18T18:08:28.721Z,12.92
2023-04-18T18:11:30.513Z,12.91
2023-04-18T18:15:07.032Z,12.73
2023-04-18T18:18:11.085Z,12.61
2023-04-18T18:21:12.939Z,12.49
2023-04-18T18:24:14.543Z,12.21
2023-04-18T18:27:20.140Z,11.99
2023-04-18T18:30:21.701Z,11.79
2023-04-18T18:33:23.483Z,11.65
2023-04-18T18:36:25.398Z,11.51
2023-04-18T18:39:28.469Z,11.09
2023-04-18T18:46:00.837Z,10.91
2023-04-18T18:49:04.501Z,11.03
2023-04-18T18:52:06.172Z,10.86
2023-04-18T18:55:15.306Z,10.87
2023-04-18T18:58:17.915Z,10.64
2023-04-18T19:01:19.582Z,10.60
2023-04-18T19:04:21.635Z,10.51
2023-04-18T19:07:23.692Z,10.31
2023-04-18T19:10:34.521Z,10.31
2023-04-18T19:13:36.048Z,10.32
2023-04-18T19:16:37.897Z,10.29
2023-04-18T19:19:46.768Z,10.04
2023-04-18T19:22:48.290Z,10.11
2023-04-18T19:25:49.806Z,10.12
2023-04-18T19:29:01.815Z,10.19
2023-04-18T19:32:03.734Z,10.10
2023-04-18T19:35:09.837Z,10.12
2023-04-18T19:38:13.895Z,9.95
2023-04-18T19:41:15.408Z,9.97
2023-04-18T19:44:17.073Z,10.00
2023-04-18T19:47:21.833Z,9.78
2023-04-18T19:50:23.356Z,9.75
2023-04-18T19:53:28.240Z,9.62
2023-04-18T19:56:33.643Z,9.61
2023-04-18T20:02:58.755Z,9.37
2023-04-18T20:06:01.341Z,9.35
2023-04-18T20:09:03.612Z,9.32
2023-04-18T20:12:15.586Z,9.30
2023-04-18T20:15:42.464Z,9.33
2023-04-18T20:18:47.522Z,9.38
2023-04-18T20:21:49.540Z,9.13
2023-04-18T20:24:51.174Z,9.08
2023-04-18T20:27:52.771Z,9.03
2023-04-18T20:30:57.407Z,8.99
2023-04-18T20:33:59.073Z,9.21
2023-04-18T20:37:22.684Z,9.42
2023-04-18T20:40:26.170Z,9.23
2023-04-18T20:43:38.229Z,9.07
2023-04-18T20:46:43.610Z,9.11
2023-04-18T20:49:51.022Z,9.11
2023-04-18T20:52:52.551Z,8.98
2023-04-18T20:55:54.288Z,9.08
2023-04-18T20:58:55.994Z,9.18
2023-04-18T21:02:00.879Z,9.24
2023-04-18T21:05:02.805Z,9.05
2023-04-18T21:08:22.951Z,8.90
2023-04-18T21:11:24.504Z,8.80
2023-04-18T21:14:26.027Z,8.72
2023-04-18T21:17:27.643Z,8.80
2023-04-18T21:20:34.204Z,8.78
2023-04-18T21:23:44.186Z,8.87
2023-04-18T21:26:51.589Z,8.82
2023-04-18T21:30:02.355Z,8.76
2023-04-18T21:33:08.784Z,8.74
2023-04-18T21:36:10.933Z,8.84
2023-04-18T21:39:17.620Z,8.84
2023-04-18T21:42:19.154Z,8.66
2023-04-18T21:45:23.726Z,8.55
2023-04-18T21:48:25.281Z,8.42
2023-04-18T21:54:49.628Z,8.32
2023-04-18T21:57:57.198Z,8.33
2023-04-18T22:01:01.020Z,8.35
2023-04-18T22:04:02.951Z,8.34
2023-04-18T22:07:04.852Z,8.31
2023-04-18T22:10:08.076Z,8.31
2023-04-18T22:13:17.436Z,8.45
2023-04-18T22:16:28.885Z,8.47
2023-04-18T22:19:31.336Z,8.48
2023-04-18T22:22:44.439Z,8.60
2023-04-18T22:25:48.504Z,8.53
2023-04-18T22:28:50.002Z,8.57
2023-04-18T22:31:51.688Z,8.69
2023-04-18T22:35:06.608Z,8.55
2023-04-18T22:38:10.619Z,8.55
2023-04-18T22:41:15.394Z,8.60
2023-04-18T22:44:20.055Z,8.53
2023-04-18T22:47:24.825Z,8.51
2023-04-18T22:53:51.666Z,8.41
2023-04-18T22:56:54.740Z,8.37
2023-04-18T22:59:56.651Z,8.30
2023-04-18T23:03:02.241Z,8.21
2023-04-18T23:06:06.487Z,8.15
2023-04-18T23:09:09.923Z,8.06
2023-04-18T23:12:17.640Z,8.00
2023-04-18T23:15:21.840Z,8.01
2023-04-18T23:18:23.326Z,8.01
2023-04-18T23:21:29.988Z,8.05
2023-04-18T23:24:33.724Z,8.02
2023-04-18T23:27:35.853Z,7.99
2023-04-18T23:30:43.589Z,8.04
2023-04-18T23:33:46.774Z,8.12
2023-04-18T23:36:55.720Z,8.13
2023-04-18T23:39:59.141Z,8.11
2023-04-18T23:43:01.883Z,8.20
2023-04-18T23:46:03.542Z,8.19
2023-04-18T23:49:05.114Z,8.31
2023-04-18T23:52:09.621Z,8.35
2023-04-18T23:55:14.280Z,8.44
2023-04-18T23:58:15.886Z,8.51
